createdAt,value
2023-04-01T00:01:25.725Z,10.32
2023-04-01T00:03:55.119Z,4.18
2023-04-01T00:06:23.354Z,4.22
2023-04-01T00:08:54.182Z,9.93
2023-04-01T00:11:23.693Z,5.20
2023-04-01T00:13:52.029Z,4.55
2023-04-01T00:16:21.678Z,3.22
2023-04-01T00:18:51.792Z,5.40
2023-04-01T00:21:21.492Z,6.18
2023-04-01T00:23:50.413Z,4.97
2023-04-01T00:26:22.476Z,5.72
2023-04-01T00:28:51.605Z,2.60
2023-04-01T00:31:19.615Z,5.95
2023-04-01T00:33:48.103Z,5.65
2023-04-01T00:36:18.334Z,4.78
2023-04-01T00:38:47.955Z,6.20
2023-04-01T00:41:18.000Z,4.25
2023-04-01T00:43:49.223Z,5.35
2023-04-01T00:46:17.417Z,4.20
2023-04-01T00:48:49.402Z,6.80
2023-04-01T00:51:21.240Z,8.27
2023-04-01T00:53:53.081Z,7.13
2023-04-01T00:56:26.330Z,8.00
2023-04-01T00:59:02.950Z,7.07
2023-04-01T01:01:32.480Z,5.35
2023-04-01T01:04:01.289Z,5.65
2023-04-01T01:06:45.471Z,5.18
2023-04-01T01:09:31.192Z,3.80
2023-04-01T01:12:08.019Z,3.47
2023-04-01T01:14:53.450Z,3.85
2023-04-01T01:17:32.679Z,13.55
2023-04-01T01:20:39.289Z,10.23
2023-04-01T01:23:43.849Z,5.47
2023-04-01T01:26:36.168Z,5.82
2023-04-01T01:29:14.283Z,3.95
2023-04-01T01:31:52.921Z,3.90
2023-04-01T01:34:26.507Z,3.78
2023-04-01T01:37:01.567Z,7.57
2023-04-01T01:39:33.900Z,5.18
2023-04-01T01:42:06.209Z,4.10
2023-04-01T01:44:36.097Z,6.15
2023-04-01T01:47:04.789Z,4.78
2023-04-01T01:49:34.734Z,5.85
2023-04-01T01:52:05.051Z,8.05
2023-04-01T01:54:33.335Z,7.57
2023-04-01T01:57:08.767Z,4.93
2023-04-01T01:59:42.122Z,6.82
2023-04-01T02:02:12.742Z,3.67
2023-04-01T02:04:43.602Z,3.22
2023-04-01T02:07:21.356Z,4.15
2023-04-01T02:09:51.617Z,10.02
2023-04-01T02:12:22.097Z,3.65
2023-04-01T02:14:55.071Z,6.93
2023-04-01T02:17:27.609Z,5.60
2023-04-01T02:19:59.324Z,5.63
2023-04-01T02:22:32.619Z,3.83
2023-04-01T02:25:06.923Z,6.03
2023-04-01T02:27:35.488Z,4.55
2023-04-01T02:30:10.963Z,4.32
2023-04-01T02:32:41.455Z,6.15
2023-04-01T02:35:12.317Z,6.50
2023-04-01T02:37:44.042Z,6.43
2023-04-01T02:40:15.742Z,4.57
2023-04-01T02:42:43.784Z,3.38
2023-04-01T02:45:13.602Z,7.40
2023-04-01T02:47:42.224Z,4.20
2023-04-01T02:50:11.057Z,6.85
2023-04-01T02:52:39.460Z,4.03
2023-04-01T02:55:10.233Z,3.60
2023-04-01T02:57:38.474Z,3.00
2023-04-01T03:00:12.108Z,5.07
2023-04-01T03:02:40.975Z,5.57
2023-04-01T03:05:10.384Z,7.35
2023-04-01T03:07:38.638Z,8.05
2023-04-01T03:10:10.389Z,8.98
2023-04-01T03:12:39.100Z,5.72
2023-04-01T03:15:11.143Z,6.38
2023-04-01T03:17:41.483Z,5.40
2023-04-01T03:20:11.851Z,5.20
2023-04-01T03:22:42.804Z,4.28
2023-04-01T03:25:13.002Z,7.10
2023-04-01T03:27:41.334Z,6.65
2023-04-01T03:30:11.919Z,6.22
2023-04-01T03:32:48.867Z,5.15
2023-04-01T03:35:17.412Z,4.07
2023-04-01T03:37:47.264Z,6.47
2023-04-01T03:40:17.500Z,4.97
2023-04-01T03:42:45.748Z,5.97
2023-04-01T03:45:14.477Z,4.15
2023-04-01T03:47:42.951Z,8.95
2023-04-01T03:50:12.491Z,4.40
2023-04-01T03:52:41.331Z,7.03
2023-04-01T03:55:10.219Z,3.88
2023-04-01T03:57:41.927Z,4.30
2023-04-01T04:00:18.391Z,3.63
2023-04-01T04:02:50.718Z,3.90
2023-04-01T04:05:25.424Z,7.30
2023-04-01T04:07:54.667Z,6.93
2023-04-01T04:10:23.923Z,5.03
2023-04-01T04:12:55.044Z,5.07
2023-04-01T04:15:25.728Z,4.53
2023-04-01T04:17:54.159Z,7.40
2023-04-01T04:20:22.307Z,7.38
2023-04-01T04:22:51.097Z,3.25
2023-04-01T04:25:19.527Z,3.95
2023-04-01T04:27:47.872Z,3.70
2023-04-01T04:30:19.190Z,7.32
2023-04-01T04:32:47.653Z,4.00
2023-04-01T04:35:16.506Z,3.67
2023-04-01T04:37:45.158Z,4.65
2023-04-01T04:40:13.622Z,6.28
2023-04-01T04:42:43.010Z,5.55
2023-04-01T04:45:15.111Z,5.68
2023-04-01T04:47:53.159Z,5.63
2023-04-01T04:50:21.264Z,3.45
2023-04-01T04:52:49.815Z,4.22
2023-04-01T04:55:18.721Z,4.25
2023-04-01T04:57:50.985Z,7.20
2023-04-01T05:00:20.407Z,3.70
2023-04-01T05:02:58.649Z,3.70
2023-04-01T05:05:27.362Z,9.82
2023-04-01T05:07:55.777Z,7.50
2023-04-01T05:10:24.365Z,6.75
2023-04-01T05:12:52.870Z,7.75
2023-04-01T05:15:23.435Z,5.28
2023-04-01T05:17:51.799Z,4.13
2023-04-01T05:20:21.680Z,5.05
2023-04-01T05:22:50.167Z,29.75
2023-04-01T05:25:18.854Z,11.70
2023-04-01T05:27:47.503Z,4.07
2023-04-01T05:30:15.665Z,3.92
2023-04-01T05:33:04.356Z,4.75
2023-04-01T05:35:34.494Z,4.32
2023-04-01T05:38:02.921Z,5.00
2023-04-01T05:40:32.393Z,7.60
2023-04-01T05:43:01.023Z,8.25
2023-04-01T05:45:29.803Z,4.50
2023-04-01T05:48:16.506Z,4.53
2023-04-01T05:50:46.968Z,4.22
2023-04-01T05:53:15.709Z,6.68
2023-04-01T05:55:45.363Z,5.45
2023-04-01T05:58:13.793Z,6.10
2023-04-01T06:00:45.609Z,7.32
2023-04-01T06:03:15.766Z,4.53
2023-04-01T06:05:46.509Z,3.80
2023-04-01T06:08:19.613Z,6.07
2023-04-01T06:11:15.629Z,4.45
2023-04-01T06:14:06.228Z,12.23
2023-04-01T06:16:51.169Z,5.65
2023-04-01T06:19:38.523Z,7.75
2023-04-01T06:22:24.483Z,5.18
2023-04-01T06:25:10.480Z,7.00
2023-04-01T06:27:52.061Z,9.30
2023-04-01T06:30:37.086Z,4.20
2023-04-01T06:33:27.240Z,5.97
2023-04-01T06:36:35.548Z,4.50
2023-04-01T06:39:20.823Z,6.18
2023-04-01T06:42:15.554Z,3.20
2023-04-01T06:44:56.073Z,3.10
2023-04-01T06:47:54.360Z,5.53
2023-04-01T06:50:51.172Z,4.50
2023-04-01T06:53:43.956Z,3.17
2023-04-01T06:56:39.767Z,4.38
2023-04-01T06:59:23.063Z,4.50
2023-04-01T07:01:55.887Z,4.50
2023-04-01T07:04:30.548Z,3.60
2023-04-01T07:07:02.019Z,4.97
2023-04-01T07:09:35.019Z,3.63
2023-04-01T07:12:34.991Z,4.10
2023-04-01T07:15:27.160Z,4.35
2023-04-01T07:18:01.524Z,2.40
2023-04-01T07:20:33.276Z,4.18
2023-04-01T07:23:06.813Z,3.58
2023-04-01T07:26:01.923Z,6.43
2023-04-01T07:28:37.913Z,3.85
2023-04-01T07:31:29.029Z,4.50
2023-04-01T07:34:07.610Z,2.78
2023-04-01T07:36:42.091Z,5.20
2023-04-01T07:39:21.610Z,4.90
2023-04-01T07:42:11.509Z,5.50
2023-04-01T07:44:54.371Z,3.55
2023-04-01T07:47:37.299Z,2.10
2023-04-01T07:50:15.192Z,4.10
2023-04-01T07:52:51.096Z,5.43
2023-04-01T07:55:29.907Z,3.88
2023-04-01T07:58:06.646Z,7.43
2023-04-01T08:00:49.523Z,3.35
2023-04-01T08:03:38.906Z,3.45
2023-04-01T08:06:18.019Z,4.82
2023-04-01T08:08:58.802Z,3.80
2023-04-01T08:11:49.385Z,4.75
2023-04-01T08:14:47.253Z,5.40
2023-04-01T08:17:41.854Z,4.75
2023-04-01T08:20:23.635Z,3.45
2023-04-01T08:22:56.446Z,5.22
2023-04-01T08:25:33.011Z,4.35
2023-04-01T08:28:11.941Z,3.53
2023-04-01T08:30:45.729Z,3.83
2023-04-01T08:33:21.866Z,5.13
2023-04-01T08:36:00.093Z,3.17
2023-04-01T08:38:33.668Z,4.30
2023-04-01T08:41:11.206Z,5.10
2023-04-01T08:44:21.923Z,3.13
2023-04-01T08:47:33.886Z,4.82
2023-04-01T08:50:38.884Z,3.88
2023-04-01T08:53:29.851Z,3.43
2023-04-01T08:56:14.415Z,4.65
2023-04-01T08:59:15.608Z,8.18
2023-04-01T09:02:28.184Z,2.75
2023-04-01T09:05:28.677Z,4.13
2023-04-01T09:08:09.675Z,5.82
2023-04-01T09:10:56.743Z,2.95
2023-04-01T09:14:29.517Z,3.88
2023-04-01T09:17:43.721Z,4.20
2023-04-01T09:20:34.431Z,7.18
2023-04-01T09:23:21.396Z,4.75
2023-04-01T09:26:06.448Z,3.40
2023-04-01T09:28:47.460Z,2.10
2023-04-01T09:31:28.267Z,2.45
2023-04-01T09:34:35.609Z,5.45
2023-04-01T09:37:22.581Z,3.35
2023-04-01T09:40:13.577Z,3.10
2023-04-01T09:43:11.938Z,2.35
2023-04-01T09:45:48.940Z,4.53
2023-04-01T09:48:42.189Z,3.85
2023-04-01T09:51:23.259Z,3.17
2023-04-01T09:54:06.941Z,2.35
2023-04-01T09:57:13.064Z,4.05
2023-04-01T10:00:24.175Z,3.58
2023-04-01T10:03:37.836Z,2.42
2023-04-01T10:06:43.570Z,5.57
2023-04-01T10:09:50.898Z,5.03
2023-04-01T10:12:58.483Z,3.75
2023-04-01T10:15:58.849Z,12.05
2023-04-01T10:18:56.837Z,4.07
2023-04-01T10:21:59.503Z,4.90
2023-04-01T10:25:06.171Z,3.33
2023-04-01T10:28:17.324Z,2.45
2023-04-01T10:31:49.500Z,4.05
2023-04-01T10:34:51.950Z,3.38
2023-04-01T10:37:40.096Z,3.30
2023-04-01T10:40:42.560Z,5.95
2023-04-01T10:44:19.259Z,2.53
2023-04-01T10:47:25.129Z,4.20
2023-04-01T10:50:37.894Z,2.65
2023-04-01T10:53:35.822Z,4.07
2023-04-01T10:56:42.282Z,3.00
2023-04-01T11:00:18.649Z,2.85
2023-04-01T11:03:36.325Z,3.45
2023-04-01T11:07:03.171Z,5.05
2023-04-01T11:10:08.424Z,6.50
2023-04-01T11:13:09.124Z,4.28
2023-04-01T11:16:06.119Z,2.97
2023-04-01T11:19:11.611Z,2.20
2023-04-01T11:22:02.006Z,3.63
2023-04-01T11:25:10.169Z,5.18
2023-04-01T11:28:04.058Z,3.00
2023-04-01T11:30:46.706Z,2.60
2023-04-01T11:33:25.589Z,3.60
2023-04-01T11:36:17.149Z,3.15
2023-04-01T11:39:03.839Z,4.03
2023-04-01T11:42:04.328Z,4.72
2023-04-01T11:45:01.491Z,4.05
2023-04-01T11:47:57.768Z,3.80
2023-04-01T11:50:35.996Z,2.92
2023-04-01T11:53:11.212Z,3.00
2023-04-01T11:55:52.852Z,5.28
2023-04-01T11:58:39.697Z,2.55
2023-04-01T12:01:26.419Z,4.53
2023-04-01T12:04:32.458Z,5.00
2023-04-01T12:07:08.886Z,2.78
2023-04-01T12:09:46.343Z,5.03
2023-04-01T12:12:24.785Z,3.25
2023-04-01T12:15:05.739Z,4.65
2023-04-01T12:17:43.587Z,3.88
2023-04-01T12:20:38.786Z,2.60
2023-04-01T12:23:24.175Z,2.58
2023-04-01T12:26:09.679Z,3.80
2023-04-01T12:28:47.155Z,3.60
2023-04-01T12:31:34.210Z,2.65
2023-04-01T12:34:36.853Z,3.00
2023-04-01T12:37:16.234Z,3.20
2023-04-01T12:40:01.272Z,3.08
2023-04-01T12:42:52.657Z,2.90
2023-04-01T12:45:31.345Z,3.80
2023-04-01T12:48:39.599Z,1.80
2023-04-01T12:51:52.691Z,2.95
2023-04-01T12:54:49.191Z,2.55
2023-04-01T12:57:35.577Z,2.90
2023-04-01T13:00:51.143Z,3.15
2023-04-01T13:03:43.460Z,3.83
2023-04-01T13:06:50.876Z,2.45
2023-04-01T13:09:31.357Z,2.55
2023-04-01T13:12:21.235Z,2.35
2023-04-01T13:15:14.868Z,4.15
2023-04-01T13:17:53.061Z,4.10
2023-04-01T13:20:36.146Z,3.40
2023-04-01T13:23:16.794Z,2.88
2023-04-01T13:26:06.929Z,4.25
2023-04-01T13:28:46.030Z,5.50
2023-04-01T13:31:30.912Z,3.97
2023-04-01T13:34:15.840Z,3.72
2023-04-01T13:36:54.036Z,3.55
2023-04-01T13:39:37.133Z,3.72
2023-04-01T13:42:23.533Z,6.25
2023-04-01T13:44:56.771Z,4.28
2023-04-01T13:48:07.381Z,3.80
2023-04-01T13:51:10.110Z,4.60
2023-04-01T13:54:17.379Z,4.20
2023-04-01T13:57:00.279Z,3.75
2023-04-01T13:59:59.313Z,3.10
2023-04-01T14:02:45.581Z,3.88
2023-04-01T14:05:43.217Z,2.90
2023-04-01T14:08:34.532Z,5.32
2023-04-01T14:11:15.905Z,2.50
2023-04-01T14:13:55.117Z,4.70
2023-04-01T14:16:55.387Z,3.60
2023-04-01T14:19:40.119Z,4.32
2023-04-01T14:22:16.281Z,3.70
2023-04-01T14:25:18.424Z,5.72
2023-04-01T14:27:57.879Z,3.60
2023-04-01T14:30:41.260Z,4.10
2023-04-01T14:33:33.318Z,3.30
2023-04-01T14:36:20.115Z,4.18
2023-04-01T14:39:01.893Z,3.95
2023-04-01T14:41:48.329Z,2.78
2023-04-01T14:44:51.548Z,3.92
2023-04-01T14:47:46.369Z,2.55
2023-04-01T14:50:20.132Z,2.20
2023-04-01T14:52:58.105Z,3.80
2023-04-01T14:55:34.177Z,3.13
2023-04-01T14:58:11.951Z,2.97
2023-04-01T15:00:50.652Z,3.85
2023-04-01T15:03:26.499Z,2.35
2023-04-01T15:06:19.141Z,3.80
2023-04-01T15:08:57.532Z,3.53
2023-04-01T15:11:42.519Z,2.20
2023-04-01T15:14:34.133Z,2.20
2023-04-01T15:17:22.110Z,2.08
2023-04-01T15:20:07.154Z,2.40
2023-04-01T15:22:48.435Z,1.85
2023-04-01T15:25:31.853Z,3.75
2023-04-01T15:28:09.256Z,2.53
2023-04-01T15:30:49.670Z,4.05
2023-04-01T15:33:42.775Z,2.05
2023-04-01T15:36:26.207Z,2.33
2023-04-01T15:39:07.678Z,3.97
2023-04-01T15:41:45.720Z,2.78
2023-04-01T15:44:48.911Z,3.40
2023-04-01T15:47:36.224Z,3.92
2023-04-01T15:50:31.719Z,3.42
2023-04-01T15:53:14.268Z,3.03
2023-04-01T15:55:48.165Z,4.65
2023-04-01T15:58:31.844Z,3.83
2023-04-01T16:01:14.716Z,2.90
2023-04-01T16:03:53.027Z,3.03
2023-04-01T16:06:48.403Z,6.10
2023-04-01T16:09:34.185Z,3.65
2023-04-01T16:12:17.303Z,10.73
2023-04-01T16:14:58.042Z,4.68
2023-04-01T16:17:38.732Z,4.28
2023-04-01T16:20:21.360Z,3.20
2023-04-01T16:22:57.442Z,5.82
2023-04-01T16:25:36.250Z,3.72
2023-04-01T16:28:21.835Z,2.85
2023-04-01T16:30:57.584Z,2.92
2023-04-01T16:33:37.748Z,3.47
2023-04-01T16:36:13.823Z,4.05
2023-04-01T16:38:49.306Z,2.45
2023-04-01T16:41:45.774Z,2.47
2023-04-01T16:44:23.022Z,2.50
2023-04-01T16:46:55.021Z,3.50
2023-04-01T16:49:33.462Z,3.03
2023-04-01T16:52:19.801Z,3.20
2023-04-01T16:54:55.804Z,2.13
2023-04-01T16:57:29.157Z,3.17
2023-04-01T17:00:05.036Z,6.80
2023-04-01T17:05:59.035Z,3.67
2023-04-01T17:08:43.800Z,3.95
2023-04-01T17:11:20.940Z,2.75
2023-04-01T17:14:21.677Z,3.40
2023-04-01T17:20:40.900Z,4.72
2023-04-01T17:23:21.503Z,5.25
2023-04-01T17:26:09.813Z,10.15
2023-04-01T17:28:50.504Z,6.10
2023-04-01T17:31:32.277Z,9.23
2023-04-01T17:34:23.891Z,7.40
2023-04-01T17:37:10.713Z,6.90
2023-04-01T17:39:51.778Z,7.80
2023-04-01T17:42:25.165Z,8.45
2023-04-01T17:45:02.149Z,11.57
2023-04-01T17:48:04.614Z,10.60
2023-04-01T17:50:50.083Z,7.75
2023-04-01T17:53:31.282Z,8.00
2023-04-01T17:56:16.096Z,7.40
2023-04-01T17:58:49.891Z,3.85
2023-04-01T18:01:34.120Z,3.50
2023-04-01T18:04:38.857Z,4.50
2023-04-01T18:07:26.314Z,4.45
2023-04-01T18:10:07.267Z,4.47
2023-04-01T18:12:46.220Z,4.95
2023-04-01T18:15:29.759Z,7.85
2023-04-01T18:18:11.666Z,5.50
2023-04-01T18:20:50.776Z,5.47
2023-04-01T18:23:31.147Z,5.22
2023-04-01T18:26:07.969Z,5.38
2023-04-01T18:28:41.048Z,10.02
2023-04-01T18:31:17.493Z,5.70
2023-04-01T18:33:56.124Z,8.95
2023-04-01T18:36:36.966Z,6.75
2023-04-01T18:39:13.437Z,7.55
2023-04-01T18:41:52.407Z,11.93
2023-04-01T18:44:38.656Z,29.83
2023-04-01T18:47:20.298Z,16.70
2023-04-01T18:49:55.116Z,15.30
2023-04-01T18:52:28.887Z,7.45
2023-04-01T18:55:30.173Z,11.68
2023-04-01T18:58:15.365Z,9.70
2023-04-01T19:00:47.771Z,7.43
2023-04-01T19:03:24.218Z,6.63
2023-04-01T19:05:55.927Z,6.85
2023-04-01T19:08:30.496Z,18.35
2023-04-01T19:11:10.292Z,39.50
2023-04-01T19:13:53.620Z,20.92
2023-04-01T19:16:35.255Z,24.58
2023-04-01T19:19:15.956Z,17.20
2023-04-01T19:21:48.012Z,15.30
2023-04-01T19:24:53.945Z,17.90
2023-04-01T19:27:33.061Z,8.40
2023-04-01T19:30:19.332Z,9.68
2023-04-01T19:32:58.099Z,7.47
2023-04-01T19:35:38.242Z,12.07
2023-04-01T19:38:13.308Z,11.70
2023-04-01T19:40:50.744Z,8.80
2023-04-01T19:43:31.094Z,12.45
2023-04-01T19:46:06.728Z,9.18
2023-04-01T19:48:53.958Z,9.93
2023-04-01T19:51:29.425Z,7.35
2023-04-01T19:54:03.479Z,6.10
2023-04-01T19:56:41.427Z,9.88
2023-04-01T19:59:21.224Z,10.32
2023-04-01T20:01:59.285Z,9.18
2023-04-01T20:04:33.173Z,6.75
2023-04-01T20:07:09.619Z,9.20
2023-04-01T20:09:57.463Z,9.68
2023-04-01T20:12:42.044Z,9.18
2023-04-01T20:15:26.334Z,7.22
2023-04-01T20:17:58.790Z,8.85
2023-04-01T20:20:29.598Z,8.98
2023-04-01T20:23:09.295Z,8.23
2023-04-01T20:25:45.791Z,11.60
2023-04-01T20:28:22.402Z,13.63
2023-04-01T20:31:06.693Z,12.25
2023-04-01T20:33:53.124Z,16.52
2023-04-01T20:36:28.142Z,15.27
2023-04-01T20:39:28.801Z,8.25
2023-04-01T20:42:15.878Z,8.30
2023-04-01T20:44:51.952Z,7.18
2023-04-01T20:47:33.593Z,6.13
2023-04-01T20:50:11.395Z,7.22
2023-04-01T20:52:44.697Z,6.38
2023-04-01T20:55:56.791Z,8.85
2023-04-01T20:58:34.620Z,5.65
2023-04-01T21:01:13.424Z,7.18
2023-04-01T21:03:51.607Z,8.85
2023-04-01T21:06:53.919Z,11.13
2023-04-01T21:09:37.475Z,7.82
2023-04-01T21:12:18.005Z,10.95
2023-04-01T21:15:09.970Z,6.90
2023-04-01T21:17:51.152Z,9.82
2023-04-01T21:20:36.405Z,9.43
2023-04-01T21:23:31.219Z,9.02
2023-04-01T21:26:13.183Z,7.15
2023-04-01T21:28:53.951Z,10.30
2023-04-01T21:31:37.454Z,8.05
2023-04-01T21:34:37.230Z,8.05
2023-04-01T21:37:37.815Z,8.20
2023-04-01T21:40:48.996Z,7.50
2023-04-01T21:43:42.778Z,13.80
2023-04-01T21:46:54.839Z,10.73
2023-04-01T21:49:50.363Z,10.05
2023-04-01T21:52:50.160Z,10.57
2023-04-01T21:56:01.436Z,7.70
2023-04-01T21:58:49.597Z,8.43
2023-04-01T22:01:46.153Z,9.65
2023-04-01T22:04:51.029Z,11.02
2023-04-01T22:07:21.486Z,12.88
2023-04-01T22:09:59.741Z,10.45
2023-04-01T22:12:38.459Z,18.70
2023-04-01T22:15:19.574Z,15.57
2023-04-01T22:17:56.331Z,33.45
2023-04-01T22:20:30.769Z,13.13
2023-04-01T22:23:10.024Z,23.48
2023-04-01T22:25:46.205Z,20.10
2023-04-01T22:28:24.433Z,18.30
2023-04-01T22:30:54.271Z,20.13
2023-04-01T22:33:34.112Z,15.43
2023-04-01T22:36:12.705Z,14.73
2023-04-01T22:38:58.816Z,15.13
2023-04-01T22:41:36.181Z,12.70
2023-04-01T22:44:06.119Z,10.55
2023-04-01T22:47:00.551Z,5.70
2023-04-01T22:49:34.526Z,4.72
2023-04-01T22:52:12.632Z,6.43
2023-04-01T22:54:47.272Z,5.55
2023-04-01T22:57:21.498Z,6.10
2023-04-01T23:00:00.905Z,5.25
2023-04-01T23:02:32.139Z,5.30
2023-04-01T23:05:03.964Z,6.47
2023-04-01T23:07:50.144Z,5.68
2023-04-01T23:10:27.502Z,8.45
2023-04-01T23:13:00.062Z,9.82
2023-04-01T23:15:31.634Z,7.07
2023-04-01T23:18:15.108Z,7.60
2023-04-01T23:21:01.731Z,7.05
2023-04-01T23:23:37.755Z,10.02
2023-04-01T23:26:11.429Z,8.20
2023-04-01T23:28:50.725Z,9.48
2023-04-01T23:31:32.974Z,7.40
2023-04-01T23:34:03.595Z,7.55
2023-04-01T23:36:33.044Z,7.90
2023-04-01T23:39:06.636Z,8.57
2023-04-01T23:41:35.753Z,9.18
2023-04-01T23:44:07.275Z,7.07
2023-04-01T23:46:38.081Z,10.57
2023-04-01T23:49:14.012Z,10.07
2023-04-01T23:51:54.328Z,8.88
2023-04-01T23:54:32.553Z,10.68
2023-04-01T23:57:01.497Z,11.85
2023-04-01T23:59:32.719Z,8.35
